sensor_id;sensor_type;location;lat;lon;timestamp;pressure;altitude;pressure_sealevel;temperature
72236;BMP280;60146;52.498;13.462;2024-03-29T00:00:48;99157.16;;;10.66
72236;BMP280;60146;52.498;13.462;2024-03-29T00:03:13;99158.91;;;10.54
72236;BMP280;60146;52.498;13.462;2024-03-29T00:05:39;99141.69;;;10.44
72236;BMP280;60146;52.498;13.462;2024-03-29T00:08:04;99115.19;;;10.37
72236;BMP280;60146;52.498;13.462;2024-03-29T00:10:30;99105.50;;;10.38
72236;BMP280;60146;52.498;13.462;2024-03-29T00:12:56;99126.56;;;10.58
72236;BMP280;60146;52.498;13.462;2024-03-29T00:15:21;99136.53;;;10.64
72236;BMP280;60146;52.498;13.462;2024-03-29T00:17:46;99134.22;;;10.63
72236;BMP280;60146;52.498;13.462;2024-03-29T00:20:12;99152.63;;;10.75
72236;BMP280;60146;52.498;13.462;2024-03-29T00:22:37;99168.53;;;10.78
72236;BMP280;60146;52.498;13.462;2024-03-29T00:25:03;99168.31;;;10.83
72236;BMP280;60146;52.498;13.462;2024-03-29T00:27:29;99164.84;;;10.71
72236;BMP280;60146;52.498;13.462;2024-03-29T00:29:55;99168.88;;;10.68
72236;BMP280;60146;52.498;13.462;2024-03-29T00:32:20;99189.69;;;10.93
72236;BMP280;60146;52.498;13.462;2024-03-29T00:34:48;99197.56;;;10.93
72236;BMP280;60146;52.498;13.462;2024-03-29T00:37:15;99221.16;;;10.85
72236;BMP280;60146;52.498;13.462;2024-03-29T00:39:40;99215.75;;;10.90
72236;BMP280;60146;52.498;13.462;2024-03-29T00:42:06;99213.31;;;10.85
72236;BMP280;60146;52.498;13.462;2024-03-29T00:44:34;99207.50;;;10.79
72236;BMP280;60146;52.498;13.462;2024-03-29T00:47:00;99166.13;;;10.56
72236;BMP280;60146;52.498;13.462;2024-03-29T00:49:26;99133.06;;;10.44
72236;BMP280;60146;52.498;13.462;2024-03-29T00:51:51;99069.06;;;10.33
72236;BMP280;60146;52.498;13.462;2024-03-29T00:54:16;98979.50;;;10.19
72236;BMP280;60146;52.498;13.462;2024-03-29T00:56:44;98838.09;;;10.08
72236;BMP280;60146;52.498;13.462;2024-03-29T00:59:09;98670.59;;;9.84
72236;BMP280;60146;52.498;13.462;2024-03-29T01:01:34;98522.28;;;9.85
72236;BMP280;60146;52.498;13.462;2024-03-29T01:04:00;98323.34;;;9.66
72236;BMP280;60146;52.498;13.462;2024-03-29T01:06:25;98141.38;;;9.50
72236;BMP280;60146;52.498;13.462;2024-03-29T01:08:50;97972.44;;;9.42
72236;BMP280;60146;52.498;13.462;2024-03-29T01:11:16;97805.22;;;9.42
72236;BMP280;60146;52.498;13.462;2024-03-29T01:13:41;97711.03;;;9.35
72236;BMP280;60146;52.498;13.462;2024-03-29T01:16:07;97533.41;;;9.17
72236;BMP280;60146;52.498;13.462;2024-03-29T01:18:32;97481.59;;;9.19
72236;BMP280;60146;52.498;13.462;2024-03-29T01:20:59;97287.31;;;9.01
72236;BMP280;60146;52.498;13.462;2024-03-29T01:23:24;97186.31;;;9.05
72236;BMP280;60146;52.498;13.462;2024-03-29T01:25:49;97171.72;;;9.01
72236;BMP280;60146;52.498;13.462;2024-03-29T01:28:15;97099.16;;;8.88
72236;BMP280;60146;52.498;13.462;2024-03-29T01:30:40;96972.03;;;8.85
72236;BMP280;60146;52.498;13.462;2024-03-29T01:33:06;96908.94;;;8.76
72236;BMP280;60146;52.498;13.462;2024-03-29T01:35:31;96832.88;;;8.74
72236;BMP280;60146;52.498;13.462;2024-03-29T01:37:57;96786.56;;;8.64
72236;BMP280;60146;52.498;13.462;2024-03-29T01:40:22;96706.56;;;8.78
72236;BMP280;60146;52.498;13.462;2024-03-29T01:42:47;96719.16;;;8.66
72236;BMP280;60146;52.498;13.462;2024-03-29T01:45:13;96676.97;;;8.57
72236;BMP280;60146;52.498;13.462;2024-03-29T01:47:38;96603.13;;;8.47
72236;BMP280;60146;52.498;13.462;2024-03-29T01:50:04;96578.19;;;8.49
72236;BMP280;60146;52.498;13.462;2024-03-29T01:52:30;96571.78;;;8.40
72236;BMP280;60146;52.498;13.462;2024-03-29T01:54:56;96537.88;;;8.40
72236;BMP280;60146;52.498;13.462;2024-03-29T01:57:21;96538.25;;;8.38
72236;BMP280;60146;52.498;13.462;2024-03-29T01:59:47;96545.75;;;8.47
72236;BMP280;60146;52.498;13.462;2024-03-29T02:02:13;96554.63;;;8.39
72236;BMP280;60146;52.498;13.462;2024-03-29T02:04:38;96566.53;;;8.36
72236;BMP280;60146;52.498;13.462;2024-03-29T02:07:04;96582.94;;;8.37
72236;BMP280;60146;52.498;13.462;2024-03-29T02:09:29;96646.38;;;8.54
72236;BMP280;60146;52.498;13.462;2024-03-29T02:11:55;96686.16;;;8.45
72236;BMP280;60146;52.498;13.462;2024-03-29T02:14:20;96664.09;;;8.35
72236;BMP280;60146;52.498;13.462;2024-03-29T02:16:46;96622.72;;;8.30
72236;BMP280;60146;52.498;13.462;2024-03-29T02:19:11;96662.97;;;8.33
72236;BMP280;60146;52.498;13.462;2024-03-29T02:21:40;96662.25;;;8.36
72236;BMP280;60146;52.498;13.462;2024-03-29T02:24:07;96748.63;;;8.34
72236;BMP280;60146;52.498;13.462;2024-03-29T02:26:33;96800.84;;;8.41
72236;BMP280;60146;52.498;13.462;2024-03-29T02:29:02;96822.34;;;8.31
72236;BMP280;60146;52.498;13.462;2024-03-29T02:31:28;96814.97;;;8.40
72236;BMP280;60146;52.498;13.462;2024-03-29T02:33:53;96930.88;;;8.43
72236;BMP280;60146;52.498;13.462;2024-03-29T02:36:19;96976.91;;;8.32
72236;BMP280;60146;52.498;13.462;2024-03-29T02:38:44;97037.63;;;8.32
72236;BMP280;60146;52.498;13.462;2024-03-29T02:41:10;97023.25;;;8.42
72236;BMP280;60146;52.498;13.462;2024-03-29T02:43:35;97136.75;;;8.36
72236;BMP280;60146;52.498;13.462;2024-03-29T02:46:00;97156.53;;;8.37
72236;BMP280;60146;52.498;13.462;2024-03-29T02:48:26;97133.63;;;8.27
72236;BMP280;60146;52.498;13.462;2024-03-29T02:50:51;97133.91;;;8.22
72236;BMP280;60146;52.498;13.462;2024-03-29T02:53:16;97105.19;;;8.19
72236;BMP280;60146;52.498;13.462;2024-03-29T02:55:42;97112.53;;;8.13
72236;BMP280;60146;52.498;13.462;2024-03-29T02:58:07;97126.16;;;8.26
72236;BMP280;60146;52.498;13.462;2024-03-29T03:00:33;97116.66;;;8.14
72236;BMP280;60146;52.498;13.462;2024-03-29T03:02:59;97121.75;;;8.07
72236;BMP280;60146;52.498;13.462;2024-03-29T03:05:24;97148.00;;;8.18
72236;BMP280;60146;52.498;13.462;2024-03-29T03:07:49;97196.34;;;8.15
72236;BMP280;60146;52.498;13.462;2024-03-29T03:10:33;97128.81;;;8.07
72236;BMP280;60146;52.498;13.462;2024-03-29T03:13:17;97145.75;;;7.98
72236;BMP280;60146;52.498;13.462;2024-03-29T03:15:43;97145.75;;;7.98
72236;BMP280;60146;52.498;13.462;2024-03-29T03:18:08;97116.94;;;7.91
72236;BMP280;60146;52.498;13.462;2024-03-29T03:20:33;97104.66;;;7.91
72236;BMP280;60146;52.498;13.462;2024-03-29T03:22:59;97134.81;;;7.89
72236;BMP280;60146;52.498;13.462;2024-03-29T03:25:27;97128.78;;;7.85
72236;BMP280;60146;52.498;13.462;2024-03-29T03:27:53;97140.22;;;7.81
72236;BMP280;60146;52.498;13.462;2024-03-29T03:30:18;97113.16;;;7.66
72236;BMP280;60146;52.498;13.462;2024-03-29T03:32:44;97186.28;;;7.77
72236;BMP280;60146;52.498;13.462;2024-03-29T03:35:09;97170.72;;;7.80
72236;BMP280;60146;52.498;13.462;2024-03-29T03:37:34;97212.25;;;7.73
72236;BMP280;60146;52.498;13.462;2024-03-29T03:40:00;97160.44;;;7.68
72236;BMP280;60146;52.498;13.462;2024-03-29T03:42:25;97195.09;;;7.72
72236;BMP280;60146;52.498;13.462;2024-03-29T03:44:51;97202.38;;;7.64
72236;BMP280;60146;52.498;13.462;2024-03-29T03:47:16;97183.59;;;7.55
72236;BMP280;60146;52.498;13.462;2024-03-29T03:49:41;97206.38;;;7.58
72236;BMP280;60146;52.498;13.462;2024-03-29T03:52:07;97214.41;;;7.53
72236;BMP280;60146;52.498;13.462;2024-03-29T03:54:32;97226.78;;;7.56
72236;BMP280;60146;52.498;13.462;2024-03-29T03:56:57;97300.16;;;7.61
72236;BMP280;60146;52.498;13.462;2024-03-29T03:59:23;97279.19;;;7.54
72236;BMP280;60146;52.498;13.462;2024-03-29T04:01:48;97341.91;;;7.65
72236;BMP280;60146;52.498;13.462;2024-03-29T04:04:17;97371.72;;;7.82
72236;BMP280;60146;52.498;13.462;2024-03-29T04:06:42;97359.72;;;7.63
72236;BMP280;60146;52.498;13.462;2024-03-29T04:09:08;97322.03;;;7.57
72236;BMP280;60146;52.498;13.462;2024-03-29T04:11:33;97339.75;;;7.51
72236;BMP280;60146;52.498;13.462;2024-03-29T04:13:59;97369.41;;;7.62
72236;BMP280;60146;52.498;13.462;2024-03-29T04:16:24;97359.09;;;7.66
72236;BMP280;60146;52.498;13.462;2024-03-29T04:18:49;97397.56;;;7.57
72236;BMP280;60146;52.498;13.462;2024-03-29T04:21:15;97354.22;;;7.49
72236;BMP280;60146;52.498;13.462;2024-03-29T04:23:40;97405.84;;;7.62
72236;BMP280;60146;52.498;13.462;2024-03-29T04:26:05;97462.50;;;7.65
72236;BMP280;60146;52.498;13.462;2024-03-29T04:28:31;97434.84;;;7.61
72236;BMP280;60146;52.498;13.462;2024-03-29T04:30:58;97404.09;;;7.51
72236;BMP280;60146;52.498;13.462;2024-03-29T04:33:24;97433.44;;;7.48
72236;BMP280;60146;52.498;13.462;2024-03-29T04:35:56;97364.97;;;7.47
72236;BMP280;60146;52.498;13.462;2024-03-29T04:38:22;97362.69;;;7.46
72236;BMP280;60146;52.498;13.462;2024-03-29T04:40:50;97342.19;;;7.44
72236;BMP280;60146;52.498;13.462;2024-03-29T04:43:15;97335.59;;;7.47
72236;BMP280;60146;52.498;13.462;2024-03-29T04:45:42;97292.91;;;7.36
72236;BMP280;60146;52.498;13.462;2024-03-29T04:48:07;97263.09;;;7.34
72236;BMP280;60146;52.498;13.462;2024-03-29T04:50:33;97229.25;;;7.49
72236;BMP280;60146;52.498;13.462;2024-03-29T04:52:59;97259.22;;;7.43
72236;BMP280;60146;52.498;13.462;2024-03-29T04:55:24;97245.63;;;7.34
72236;BMP280;60146;52.498;13.462;2024-03-29T04:57:49;97194.91;;;7.28
72236;BMP280;60146;52.498;13.462;2024-03-29T05:00:15;97191.63;;;7.31
72236;BMP280;60146;52.498;13.462;2024-03-29T05:02:40;97209.19;;;7.34
72236;BMP280;60146;52.498;13.462;2024-03-29T05:05:06;97222.59;;;7.36
72236;BMP280;60146;52.498;13.462;2024-03-29T05:07:31;97289.63;;;7.39
72236;BMP280;60146;52.498;13.462;2024-03-29T05:09:57;97268.06;;;7.39
72236;BMP280;60146;52.498;13.462;2024-03-29T05:12:22;97310.38;;;7.36
72236;BMP280;60146;52.498;13.462;2024-03-29T05:14:47;97314.22;;;7.42
72236;BMP280;60146;52.498;13.462;2024-03-29T05:17:15;97378.47;;;7.53
72236;BMP280;60146;52.498;13.462;2024-03-29T05:19:43;97372.09;;;7.50
72236;BMP280;60146;52.498;13.462;2024-03-29T05:22:08;97380.56;;;7.63
72236;BMP280;60146;52.498;13.462;2024-03-29T05:24:34;97468.97;;;7.56
72236;BMP280;60146;52.498;13.462;2024-03-29T05:27:00;97491.97;;;7.54
72236;BMP280;60146;52.498;13.462;2024-03-29T05:29:26;97455.94;;;7.56
72236;BMP280;60146;52.498;13.462;2024-03-29T05:31:51;97463.09;;;7.59
72236;BMP280;60146;52.498;13.462;2024-03-29T05:34:17;97504.75;;;7.59
72236;BMP280;60146;52.498;13.462;2024-03-29T05:36:42;97545.47;;;7.78
72236;BMP280;60146;52.498;13.462;2024-03-29T05:39:09;97594.41;;;7.73
72236;BMP280;60146;52.498;13.462;2024-03-29T05:41:34;97610.50;;;7.75
72236;BMP280;60146;52.498;13.462;2024-03-29T05:44:00;97659.19;;;7.86
72236;BMP280;60146;52.498;13.462;2024-03-29T05:46:25;97657.63;;;7.97
72236;BMP280;60146;52.498;13.462;2024-03-29T05:48:50;97721.28;;;7.96
72236;BMP280;60146;52.498;13.462;2024-03-29T05:51:16;97722.75;;;8.08
72236;BMP280;60146;52.498;13.462;2024-03-29T05:53:41;97803.88;;;8.07
72236;BMP280;60146;52.498;13.462;2024-03-29T05:56:06;97857.41;;;8.16
72236;BMP280;60146;52.498;13.462;2024-03-29T05:58:35;97868.28;;;8.18
72236;BMP280;60146;52.498;13.462;2024-03-29T06:01:01;97937.16;;;8.29
72236;BMP280;60146;52.498;13.462;2024-03-29T06:03:27;97953.00;;;8.36
72236;BMP280;60146;52.498;13.462;2024-03-29T06:05:53;97965.16;;;8.44
72236;BMP280;60146;52.498;13.462;2024-03-29T06:08:18;98013.44;;;8.38
72236;BMP280;60146;52.498;13.462;2024-03-29T06:10:46;98033.22;;;8.50
72236;BMP280;60146;52.498;13.462;2024-03-29T06:13:11;98078.41;;;8.66
72236;BMP280;60146;52.498;13.462;2024-03-29T06:15:53;98120.16;;;8.78
72236;BMP280;60146;52.498;13.462;2024-03-29T06:18:54;98139.09;;;8.75
72236;BMP280;60146;52.498;13.462;2024-03-29T06:21:19;98157.38;;;8.75
72236;BMP280;60146;52.498;13.462;2024-03-29T06:23:44;98188.47;;;8.80
72236;BMP280;60146;52.498;13.462;2024-03-29T06:26:10;98251.91;;;8.92
72236;BMP280;60146;52.498;13.462;2024-03-29T06:28:35;98253.53;;;8.96
72236;BMP280;60146;52.498;13.462;2024-03-29T06:31:01;98287.38;;;9.05
72236;BMP280;60146;52.498;13.462;2024-03-29T06:33:27;98332.03;;;9.12
72236;BMP280;60146;52.498;13.462;2024-03-29T06:35:54;98337.34;;;9.15
72236;BMP280;60146;52.498;13.462;2024-03-29T06:38:19;98361.09;;;9.33
72236;BMP280;60146;52.498;13.462;2024-03-29T06:40:45;98388.13;;;9.37
72236;BMP280;60146;52.498;13.462;2024-03-29T06:43:11;98424.75;;;9.61
72236;BMP280;60146;52.498;13.462;2024-03-29T06:45:40;98484.53;;;9.62
72236;BMP280;60146;52.498;13.462;2024-03-29T06:48:07;98489.88;;;9.66
72236;BMP280;60146;52.498;13.462;2024-03-29T06:50:33;98523.47;;;9.75
72236;BMP280;60146;52.498;13.462;2024-03-29T06:52:58;98566.19;;;9.91
72236;BMP280;60146;52.498;13.462;2024-03-29T06:55:23;98648.25;;;10.18
72236;BMP280;60146;52.498;13.462;2024-03-29T06:57:49;98668.56;;;10.33
72236;BMP280;60146;52.498;13.462;2024-03-29T07:00:14;98761.09;;;10.49
72236;BMP280;60146;52.498;13.462;2024-03-29T07:02:40;98822.63;;;10.55
72236;BMP280;60146;52.498;13.462;2024-03-29T07:05:06;98863.75;;;10.74
72236;BMP280;60146;52.498;13.462;2024-03-29T07:07:33;98923.16;;;10.82
72236;BMP280;60146;52.498;13.462;2024-03-29T07:09:58;98903.53;;;10.88
72236;BMP280;60146;52.498;13.462;2024-03-29T07:12:23;98924.72;;;10.95
72236;BMP280;60146;52.498;13.462;2024-03-29T07:14:49;98944.56;;;11.16
72236;BMP280;60146;52.498;13.462;2024-03-29T07:17:14;98986.63;;;11.19
72236;BMP280;60146;52.498;13.462;2024-03-29T07:19:39;99014.13;;;10.93
72236;BMP280;60146;52.498;13.462;2024-03-29T07:22:05;99013.06;;;11.14
72236;BMP280;60146;52.498;13.462;2024-03-29T07:24:30;99068.22;;;11.17
72236;BMP280;60146;52.498;13.462;2024-03-29T07:26:56;99061.81;;;11.07
72236;BMP280;60146;52.498;13.462;2024-03-29T07:29:21;99083.19;;;11.17
72236;BMP280;60146;52.498;13.462;2024-03-29T07:31:46;99075.66;;;11.16
72236;BMP280;60146;52.498;13.462;2024-03-29T07:34:12;99067.97;;;11.11
72236;BMP280;60146;52.498;13.462;2024-03-29T07:36:37;99063.47;;;11.11
72236;BMP280;60146;52.498;13.462;2024-03-29T07:39:04;99063.19;;;11.04
72236;BMP280;60146;52.498;13.462;2024-03-29T07:41:29;99077.88;;;11.25
72236;BMP280;60146;52.498;13.462;2024-03-29T07:43:56;99116.03;;;11.35
72236;BMP280;60146;52.498;13.462;2024-03-29T07:46:27;99124.13;;;11.41
72236;BMP280;60146;52.498;13.462;2024-03-29T07:48:53;99119.47;;;11.47
72236;BMP280;60146;52.498;13.462;2024-03-29T07:51:18;99165.72;;;11.51
72236;BMP280;60146;52.498;13.462;2024-03-29T07:53:44;99159.31;;;11.40
72236;BMP280;60146;52.498;13.462;2024-03-29T07:56:09;99175.44;;;11.31
72236;BMP280;60146;52.498;13.462;2024-03-29T07:58:35;99178.97;;;11.35
72236;BMP280;60146;52.498;13.462;2024-03-29T08:01:00;99182.69;;;11.34
72236;BMP280;60146;52.498;13.462;2024-03-29T08:03:26;99209.53;;;11.51
72236;BMP280;60146;52.498;13.462;2024-03-29T08:05:58;99241.41;;;11.61
72236;BMP280;60146;52.498;13.462;2024-03-29T08:08:24;99228.13;;;11.66
72236;BMP280;60146;52.498;13.462;2024-03-29T08:10:53;99248.75;;;11.67
72236;BMP280;60146;52.498;13.462;2024-03-29T08:13:18;99244.63;;;11.66
72236;BMP280;60146;52.498;13.462;2024-03-29T08:15:46;99253.28;;;11.67
72236;BMP280;60146;52.498;13.462;2024-03-29T08:18:11;99241.41;;;11.61
72236;BMP280;60146;52.498;13.462;2024-03-29T08:20:37;99225.41;;;11.54
72236;BMP280;60146;52.498;13.462;2024-03-29T08:23:03;99196.44;;;11.71
72236;BMP280;60146;52.498;13.462;2024-03-29T08:25:29;99205.19;;;11.75
72236;BMP280;60146;52.498;13.462;2024-03-29T08:27:54;99200.59;;;11.72
72236;BMP280;60146;52.498;13.462;2024-03-29T08:30:24;99184.69;;;11.88
72236;BMP280;60146;52.498;13.462;2024-03-29T08:32:50;99161.56;;;12.02
72236;BMP280;60146;52.498;13.462;2024-03-29T08:35:17;99156.00;;;12.15
72236;BMP280;60146;52.498;13.462;2024-03-29T08:37:43;99123.09;;;12.29
72236;BMP280;60146;52.498;13.462;2024-03-29T08:40:09;99099.06;;;12.39
72236;BMP280;60146;52.498;13.462;2024-03-29T08:42:34;99106.81;;;12.47
72236;BMP280;60146;52.498;13.462;2024-03-29T08:45:03;99062.91;;;12.59
72236;BMP280;60146;52.498;13.462;2024-03-29T08:47:28;99104.06;;;12.67
72236;BMP280;60146;52.498;13.462;2024-03-29T08:49:54;99123.63;;;12.93
72236;BMP280;60146;52.498;13.462;2024-03-29T08:52:19;99195.88;;;13.11
72236;BMP280;60146;52.498;13.462;2024-03-29T08:54:45;99155.53;;;13.30
72236;BMP280;60146;52.498;13.462;2024-03-29T08:57:10;99217.38;;;13.24
72236;BMP280;60146;52.498;13.462;2024-03-29T08:59:36;99235.56;;;13.17
72236;BMP280;60146;52.498;13.462;2024-03-29T09:02:05;99237.19;;;13.34
72236;BMP280;60146;52.498;13.462;2024-03-29T09:04:31;99241.13;;;13.51
72236;BMP280;60146;52.498;13.462;2024-03-29T09:06:59;99258.50;;;13.79
72236;BMP280;60146;52.498;13.462;2024-03-29T09:09:25;99304.53;;;14.12
72236;BMP280;60146;52.498;13.462;2024-03-29T09:11:51;99334.16;;;14.20
72236;BMP280;60146;52.498;13.462;2024-03-29T09:14:16;99367.25;;;14.33
72236;BMP280;60146;52.498;13.462;2024-03-29T09:16:41;99397.50;;;14.51
72236;BMP280;60146;52.498;13.462;2024-03-29T09:19:09;99414.84;;;14.78
72236;BMP280;60146;52.498;13.462;2024-03-29T09:21:34;99464.69;;;15.10
72236;BMP280;60146;52.498;13.462;2024-03-29T09:24:00;99513.59;;;15.65
72236;BMP280;60146;52.498;13.462;2024-03-29T09:26:25;99521.09;;;15.33
72236;BMP280;60146;52.498;13.462;2024-03-29T09:28:51;99526.50;;;14.97
72236;BMP280;60146;52.498;13.462;2024-03-29T09:31:16;99521.31;;;14.86
72236;BMP280;60146;52.498;13.462;2024-03-29T09:33:41;99539.13;;;15.04
72236;BMP280;60146;52.498;13.462;2024-03-29T09:36:07;99536.16;;;15.05
72236;BMP280;60146;52.498;13.462;2024-03-29T09:38:35;99540.13;;;14.99
72236;BMP280;60146;52.498;13.462;2024-03-29T09:41:13;99538.72;;;15.02
72236;BMP280;60146;52.498;13.462;2024-03-29T09:43:41;99544.25;;;14.97
72236;BMP280;60146;52.498;13.462;2024-03-29T09:46:08;99550.19;;;15.21
72236;BMP280;60146;52.498;13.462;2024-03-29T09:48:34;99561.84;;;15.35
72236;BMP280;60146;52.498;13.462;2024-03-29T09:51:05;99589.19;;;15.27
72236;BMP280;60146;52.498;13.462;2024-03-29T09:53:34;99603.09;;;14.86
72236;BMP280;60146;52.498;13.462;2024-03-29T09:56:05;99596.59;;;14.83
72236;BMP280;60146;52.498;13.462;2024-03-29T09:58:34;99583.09;;;14.85
72236;BMP280;60146;52.498;13.462;2024-03-29T10:01:02;99574.34;;;14.96
72236;BMP280;60146;52.498;13.462;2024-03-29T10:03:29;99576.44;;;14.91
72236;BMP280;60146;52.498;13.462;2024-03-29T10:05:58;99587.66;;;14.88
72236;BMP280;60146;52.498;13.462;2024-03-29T10:08:29;99591.59;;;15.05
72236;BMP280;60146;52.498;13.462;2024-03-29T10:10:57;99584.16;;;15.22
72236;BMP280;60146;52.498;13.462;2024-03-29T10:13:23;99590.38;;;15.30
72236;BMP280;60146;52.498;13.462;2024-03-29T10:15:49;99571.56;;;15.04
72236;BMP280;60146;52.498;13.462;2024-03-29T10:18:16;99586.66;;;15.19
72236;BMP280;60146;52.498;13.462;2024-03-29T10:20:43;99578.44;;;14.94
72236;BMP280;60146;52.498;13.462;2024-03-29T10:23:09;99572.56;;;14.73
72236;BMP280;60146;52.498;13.462;2024-03-29T10:25:34;99556.34;;;14.48
72236;BMP280;60146;52.498;13.462;2024-03-29T10:28:00;99520.75;;;14.54
72236;BMP280;60146;52.498;13.462;2024-03-29T10:30:29;99492.41;;;14.39
72236;BMP280;60146;52.498;13.462;2024-03-29T10:32:57;99493.13;;;14.36
72236;BMP280;60146;52.498;13.462;2024-03-29T10:35:26;99486.06;;;14.40
72236;BMP280;60146;52.498;13.462;2024-03-29T10:37:53;99453.28;;;14.26
72236;BMP280;60146;52.498;13.462;2024-03-29T10:40:21;99430.78;;;14.05
72236;BMP280;60146;52.498;13.462;2024-03-29T10:42:47;99430.81;;;13.70
72236;BMP280;60146;52.498;13.462;2024-03-29T10:45:14;99397.47;;;13.74
72236;BMP280;60146;52.498;13.462;2024-03-29T10:47:41;99382.44;;;13.74
72236;BMP280;60146;52.498;13.462;2024-03-29T10:50:10;99382.72;;;13.96
72236;BMP280;60146;52.498;13.462;2024-03-29T10:52:39;99383.63;;;13.76
72236;BMP280;60146;52.498;13.462;2024-03-29T10:55:04;99359.94;;;13.76
72236;BMP280;60146;52.498;13.462;2024-03-29T10:57:34;99313.19;;;13.85
72236;BMP280;60146;52.498;13.462;2024-03-29T11:00:04;99321.03;;;14.09
72236;BMP280;60146;52.498;13.462;2024-03-29T11:02:39;99297.84;;;14.14
72236;BMP280;60146;52.498;13.462;2024-03-29T11:05:10;99303.03;;;14.68
72236;BMP280;60146;52.498;13.462;2024-03-29T11:07:39;99306.19;;;15.03
72236;BMP280;60146;52.498;13.462;2024-03-29T11:10:07;99322.69;;;15.31
72236;BMP280;60146;52.498;13.462;2024-03-29T11:12:44;99304.81;;;15.58
72236;BMP280;60146;52.498;13.462;2024-03-29T11:15:18;99364.97;;;16.01
72236;BMP280;60146;52.498;13.462;2024-03-29T11:17:45;99356.56;;;15.96
72236;BMP280;60146;52.498;13.462;2024-03-29T11:20:10;99368.38;;;16.39
72236;BMP280;60146;52.498;13.462;2024-03-29T11:22:40;99393.22;;;16.75
72236;BMP280;60146;52.498;13.462;2024-03-29T11:25:05;99400.38;;;16.52
72236;BMP280;60146;52.498;13.462;2024-03-29T11:27:33;99384.88;;;16.14
72236;BMP280;60146;52.498;13.462;2024-03-29T11:29:58;99367.25;;;16.03
72236;BMP280;60146;52.498;13.462;2024-03-29T11:32:37;99367.94;;;16.37
72236;BMP280;60146;52.498;13.462;2024-03-29T11:35:04;99368.56;;;16.30
72236;BMP280;60146;52.498;13.462;2024-03-29T11:37:31;99391.22;;;16.10
72236;BMP280;60146;52.498;13.462;2024-03-29T11:39:59;99385.66;;;15.81
72236;BMP280;60146;52.498;13.462;2024-03-29T11:42:44;99368.13;;;15.39
72236;BMP280;60146;52.498;13.462;2024-03-29T11:45:10;99360.63;;;15.41
72236;BMP280;60146;52.498;13.462;2024-03-29T11:47:39;99359.38;;;15.20
72236;BMP280;60146;52.498;13.462;2024-03-29T11:50:05;99343.59;;;15.24
72236;BMP280;60146;52.498;13.462;2024-03-29T11:52:31;99364.00;;;15.23
72236;BMP280;60146;52.498;13.462;2024-03-29T11:54:56;99347.97;;;15.16
72236;BMP280;60146;52.498;13.462;2024-03-29T11:57:21;99351.72;;;15.15
72236;BMP280;60146;52.498;13.462;2024-03-29T11:59:47;99357.44;;;15.02
72236;BMP280;60146;52.498;13.462;2024-03-29T12:02:13;99343.56;;;15.05
72236;BMP280;60146;52.498;13.462;2024-03-29T12:04:40;99333.00;;;15.05
72236;BMP280;60146;52.498;13.462;2024-03-29T12:07:06;99333.94;;;14.82
72236;BMP280;60146;52.498;13.462;2024-03-29T12:09:31;99309.00;;;14.95
72236;BMP280;60146;52.498;13.462;2024-03-29T12:11:57;99282.03;;;15.01
72236;BMP280;60146;52.498;13.462;2024-03-29T12:14:25;99295.81;;;14.80
72236;BMP280;60146;52.498;13.462;2024-03-29T12:16:52;99266.81;;;14.80
72236;BMP280;60146;52.498;13.462;2024-03-29T12:19:23;99275.06;;;14.94
72236;BMP280;60146;52.498;13.462;2024-03-29T12:21:49;99265.59;;;15.08
72236;BMP280;60146;52.498;13.462;2024-03-29T12:24:16;99264.38;;;15.20
72236;BMP280;60146;52.498;13.462;2024-03-29T12:26:41;99315.16;;;15.48
72236;BMP280;60146;52.498;13.462;2024-03-29T12:29:07;99276.19;;;15.78
72236;BMP280;60146;52.498;13.462;2024-03-29T12:31:32;99303.00;;;15.80
72236;BMP280;60146;52.498;13.462;2024-03-29T12:33:57;99317.75;;;16.18
72236;BMP280;60146;52.498;13.462;2024-03-29T12:36:24;99339.28;;;16.39
72236;BMP280;60146;52.498;13.462;2024-03-29T12:38:54;99356.00;;;16.43
72236;BMP280;60146;52.498;13.462;2024-03-29T12:41:23;99360.16;;;16.66
72236;BMP280;60146;52.498;13.462;2024-03-29T12:43:50;99379.72;;;16.80
72236;BMP280;60146;52.498;13.462;2024-03-29T12:46:17;99394.69;;;17.38
72236;BMP280;60146;52.498;13.462;2024-03-29T12:48:43;99448.81;;;18.91
72236;BMP280;60146;52.498;13.462;2024-03-29T12:51:08;99505.69;;;19.75
72236;BMP280;60146;52.498;13.462;2024-03-29T12:53:33;99518.72;;;19.97
72236;BMP280;60146;52.498;13.462;2024-03-29T12:55:59;99535.97;;;20.27
72236;BMP280;60146;52.498;13.462;2024-03-29T12:58:25;99536.13;;;20.61
72236;BMP280;60146;52.498;13.462;2024-03-29T13:00:50;99564.91;;;19.72
72236;BMP280;60146;52.498;13.462;2024-03-29T13:03:15;99546.19;;;19.58
72236;BMP280;60146;52.498;13.462;2024-03-29T13:05:41;99553.91;;;19.31
72236;BMP280;60146;52.498;13.462;2024-03-29T13:08:08;99555.03;;;19.27
72236;BMP280;60146;52.498;13.462;2024-03-29T13:10:35;99569.28;;;19.09
72236;BMP280;60146;52.498;13.462;2024-03-29T13:13:00;99567.50;;;18.55
72236;BMP280;60146;52.498;13.462;2024-03-29T13:15:26;99577.34;;;18.26
72236;BMP280;60146;52.498;13.462;2024-03-29T13:17:53;99561.44;;;18.01
72236;BMP280;60146;52.498;13.462;2024-03-29T13:20:19;99547.47;;;17.82
72236;BMP280;60146;52.498;13.462;2024-03-29T13:22:46;99552.25;;;17.95
72236;BMP280;60146;52.498;13.462;2024-03-29T13:25:12;99547.88;;;17.58
72236;BMP280;60146;52.498;13.462;2024-03-29T13:27:39;99537.41;;;17.43
72236;BMP280;60146;52.498;13.462;2024-03-29T13:30:08;99533.22;;;17.42
72236;BMP280;60146;52.498;13.462;2024-03-29T13:32:40;99522.25;;;17.22
72236;BMP280;60146;52.498;13.462;2024-03-29T13:35:06;99526.97;;;17.31
72236;BMP280;60146;52.498;13.462;2024-03-29T13:37:42;99526.75;;;17.18
72236;BMP280;60146;52.498;13.462;2024-03-29T13:40:09;99527.47;;;17.37
72236;BMP280;60146;52.498;13.462;2024-03-29T13:42:36;99519.31;;;17.48
72236;BMP280;60146;52.498;13.462;2024-03-29T13:45:02;99520.81;;;17.71
72236;BMP280;60146;52.498;13.462;2024-03-29T13:47:27;99520.75;;;18.15
72236;BMP280;60146;52.498;13.462;2024-03-29T13:49:52;99529.81;;;18.72
72236;BMP280;60146;52.498;13.462;2024-03-29T13:52:19;99545.97;;;18.96
72236;BMP280;60146;52.498;13.462;2024-03-29T13:54:45;99538.97;;;18.77
72236;BMP280;60146;52.498;13.462;2024-03-29T13:57:16;99516.88;;;19.06